createdAt,value
2023-03-21T00:00:42.885Z,101053.28
2023-03-21T00:03:09.574Z,101035.41
2023-03-21T00:05:40.409Z,101048.47
2023-03-21T00:08:09.611Z,101019.19
2023-03-21T00:10:40.483Z,101049.53
2023-03-21T00:13:10.794Z,101035.75
2023-03-21T00:15:44.272Z,101046.69
2023-03-21T00:18:15.473Z,101044.16
2023-03-21T00:20:42.041Z,101040.78
2023-03-21T00:23:09.962Z,101042.25
2023-03-21T00:25:36.894Z,101051.09
2023-03-21T00:28:08.392Z,101040.69
2023-03-21T00:30:35.581Z,101034.91
2023-03-21T00:33:08.980Z,101046.06
2023-03-21T00:36:02.421Z,101040.69
2023-03-21T00:38:35.038Z,101033.13
2023-03-21T00:41:10.978Z,101037.81
2023-03-21T00:43:41.693Z,101034.34
2023-03-21T00:46:08.321Z,101024.88
2023-03-21T00:48:35.054Z,101025.59
2023-03-21T00:51:01.715Z,101006.28
2023-03-21T00:53:28.888Z,101010.25
2023-03-21T00:55:56.773Z,101020.06
2023-03-21T00:58:23.404Z,101008.69
2023-03-21T01:00:50.148Z,101001.88
2023-03-21T01:03:24.784Z,101013.47
2023-03-21T01:05:52.805Z,101007.25
2023-03-21T01:08:26.818Z,101003.41
2023-03-21T01:11:02.516Z,100984.00
2023-03-21T01:13:29.139Z,100988.56
2023-03-21T01:15:57.296Z,100994.91
2023-03-21T01:18:26.549Z,100993.22
2023-03-21T01:20:54.226Z,100974.53
2023-03-21T01:23:21.124Z,100996.59
2023-03-21T01:25:48.505Z,100989.53
2023-03-21T01:28:16.733Z,100981.38
2023-03-21T01:30:45.627Z,100986.75
2023-03-21T01:33:12.788Z,100984.13
2023-03-21T01:35:49.274Z,100984.13
2023-03-21T01:38:20.180Z,100982.81
2023-03-21T01:40:47.895Z,100976.22
2023-03-21T01:43:30.697Z,100970.25
2023-03-21T01:46:22.145Z,100970.34
2023-03-21T01:49:13.211Z,100975.63
2023-03-21T01:51:43.688Z,100974.78
2023-03-21T01:54:15.269Z,100971.94
2023-03-21T01:56:44.638Z,100971.19
2023-03-21T01:59:19.775Z,100973.09
2023-03-21T02:02:08.532Z,100964.59
2023-03-21T02:04:40.962Z,100958.88
2023-03-21T02:07:19.019Z,100946.53
2023-03-21T02:09:53.049Z,100949.38
2023-03-21T02:12:23.156Z,100954.06
2023-03-21T02:14:53.201Z,100950.47
2023-03-21T02:17:35.561Z,100916.81
2023-03-21T02:20:39.633Z,100941.97
2023-03-21T02:23:38.252Z,100942.91
2023-03-21T02:26:55.061Z,100931.06
2023-03-21T02:30:00.275Z,100923.88
2023-03-21T02:32:43.072Z,100930.56
2023-03-21T02:35:25.989Z,100930.56
2023-03-21T02:38:00.806Z,100921.97
2023-03-21T02:40:34.076Z,100914.78
2023-03-21T02:43:14.082Z,100911.78
2023-03-21T02:45:51.598Z,100915.50
2023-03-21T02:48:31.136Z,100906.84
2023-03-21T02:51:05.433Z,100904.69
2023-03-21T02:53:37.541Z,100908.91
2023-03-21T02:56:08.628Z,100903.84
2023-03-21T02:58:39.208Z,100909.22
2023-03-21T03:01:06.734Z,100881.56
2023-03-21T03:03:37.372Z,100905.16
2023-03-21T03:06:15.212Z,100908.28
2023-03-21T03:09:02.994Z,100900.50
2023-03-21T03:11:33.772Z,100898.59
2023-03-21T03:14:40.075Z,100893.56
2023-03-21T03:17:18.171Z,100898.00
2023-03-21T03:20:04.265Z,100894.75
2023-03-21T03:22:40.961Z,100897.00
2023-03-21T03:25:24.840Z,100891.50
2023-03-21T03:27:58.499Z,100901.66
2023-03-21T03:30:32.277Z,100896.63
2023-03-21T03:33:09.916Z,100882.72
2023-03-21T03:35:36.727Z,100875.50
2023-03-21T03:38:07.215Z,100856.22
2023-03-21T03:40:41.050Z,100884.97
2023-03-21T03:43:34.916Z,100886.28
2023-03-21T03:46:08.966Z,100871.63
2023-03-21T03:48:42.909Z,100885.63
2023-03-21T03:51:12.811Z,100885.22
2023-03-21T03:54:08.750Z,100882.06
2023-03-21T03:56:36.980Z,100882.16
2023-03-21T03:59:05.113Z,100886.84
2023-03-21T04:01:49.397Z,100888.94
2023-03-21T04:04:16.064Z,100882.13
2023-03-21T04:06:43.770Z,100882.34
2023-03-21T04:09:20.597Z,100874.38
2023-03-21T04:11:51.860Z,100876.28
2023-03-21T04:14:19.245Z,100882.38
2023-03-21T04:16:46.230Z,100852.91
2023-03-21T04:19:13.900Z,100882.63
2023-03-21T04:21:40.545Z,100881.88
2023-03-21T04:24:08.534Z,100870.34
2023-03-21T04:26:35.834Z,100865.09
2023-03-21T04:29:22.360Z,100876.34
2023-03-21T04:32:27.985Z,100871.09
2023-03-21T04:35:06.455Z,100865.84
2023-03-21T04:37:33.397Z,100871.31
2023-03-21T04:40:00.435Z,100859.34
2023-03-21T04:42:27.238Z,100864.75
2023-03-21T04:44:56.118Z,100861.75
2023-03-21T04:47:23.598Z,100870.91
2023-03-21T04:49:50.973Z,100864.91
2023-03-21T04:52:17.647Z,100865.75
2023-03-21T04:54:44.381Z,100826.94
2023-03-21T04:57:10.998Z,100859.53
2023-03-21T04:59:37.537Z,100857.88
2023-03-21T05:02:05.773Z,100859.44
2023-03-21T05:04:32.335Z,100859.53
2023-03-21T05:06:58.946Z,100860.38
2023-03-21T05:09:26.021Z,100852.34
2023-03-21T05:11:52.941Z,100864.06
2023-03-21T05:14:22.510Z,100857.88
2023-03-21T05:16:49.641Z,100859.88
2023-03-21T05:19:19.189Z,100860.81
2023-03-21T05:21:47.024Z,100857.25
2023-03-21T05:24:21.800Z,100854.84
2023-03-21T05:26:49.746Z,100852.94
2023-03-21T05:29:19.408Z,100842.66
2023-03-21T05:31:52.775Z,100855.88
2023-03-21T05:34:21.631Z,100866.28
2023-03-21T05:36:48.577Z,100860.28
2023-03-21T05:39:16.016Z,100855.63
2023-03-21T05:41:50.872Z,100861.53
2023-03-21T05:44:17.561Z,100829.19
2023-03-21T05:46:44.591Z,100860.00
2023-03-21T05:49:11.563Z,100854.03
2023-03-21T05:51:40.214Z,100864.63
2023-03-21T05:54:06.862Z,100857.22
2023-03-21T05:56:34.706Z,100857.81
2023-03-21T05:59:04.672Z,100847.75
2023-03-21T06:01:36.144Z,100863.81
2023-03-21T06:04:10.725Z,100865.16
2023-03-21T06:06:40.708Z,100860.63
2023-03-21T06:09:08.345Z,100865.91
2023-03-21T06:11:37.662Z,100861.97
2023-03-21T06:14:24.220Z,100859.22
2023-03-21T06:17:16.620Z,100859.75
2023-03-21T06:19:52.340Z,100863.94
2023-03-21T06:22:25.908Z,100855.47
2023-03-21T06:24:52.782Z,100864.69
2023-03-21T06:27:19.399Z,100871.09
2023-03-21T06:29:55.700Z,100867.03
2023-03-21T06:32:22.716Z,100855.88
2023-03-21T06:34:54.631Z,100865.50
2023-03-21T06:37:22.137Z,100866.13
2023-03-21T06:39:50.043Z,100864.06
2023-03-21T06:42:16.703Z,100860.13
2023-03-21T06:44:43.373Z,100859.66
2023-03-21T06:47:13.739Z,100837.06
2023-03-21T06:49:42.174Z,100858.88
2023-03-21T06:52:10.392Z,100856.81
2023-03-21T06:54:37.837Z,100842.44
2023-03-21T06:57:11.756Z,100864.88
2023-03-21T06:59:39.265Z,100857.28
2023-03-21T07:02:10.583Z,100861.38
2023-03-21T07:04:42.675Z,100865.44
2023-03-21T07:07:15.570Z,100843.44
2023-03-21T07:09:42.714Z,100870.84
2023-03-21T07:12:09.369Z,100873.00
2023-03-21T07:14:56.014Z,100867.09
2023-03-21T07:17:22.720Z,100871.91
2023-03-21T07:19:49.225Z,100877.28
2023-03-21T07:22:18.608Z,100856.44
2023-03-21T07:24:48.930Z,100885.41
2023-03-21T07:27:18.533Z,100878.19
2023-03-21T07:29:45.717Z,100877.69
2023-03-21T07:32:14.114Z,100879.69
2023-03-21T07:34:40.619Z,100878.16
2023-03-21T07:37:09.317Z,100886.63
2023-03-21T07:39:35.985Z,100885.44
2023-03-21T07:42:02.625Z,100886.75
2023-03-21T07:44:33.759Z,100889.72
2023-03-21T07:47:03.683Z,100888.47
2023-03-21T07:49:31.873Z,100895.06
2023-03-21T07:51:58.406Z,100894.44
2023-03-21T07:54:25.069Z,100899.31
2023-03-21T07:56:51.594Z,100900.03
2023-03-21T07:59:18.132Z,100898.63
2023-03-21T08:01:44.632Z,100891.66
2023-03-21T08:04:11.358Z,100907.84
2023-03-21T08:06:39.434Z,100913.47
2023-03-21T08:09:06.930Z,100916.97
2023-03-21T08:11:33.657Z,100918.91
2023-03-21T08:14:01.080Z,100918.59
2023-03-21T08:16:27.709Z,100895.69
2023-03-21T08:18:54.262Z,100917.03
2023-03-21T08:21:20.970Z,100915.50
2023-03-21T08:23:48.950Z,100915.09
2023-03-21T08:26:15.837Z,100911.75
2023-03-21T08:28:42.500Z,100910.94
2023-03-21T08:31:10.452Z,100923.53
2023-03-21T08:33:37.147Z,100919.72
2023-03-21T08:36:04.726Z,100913.97
2023-03-21T08:38:31.426Z,100910.84
2023-03-21T08:41:00.289Z,100912.25
2023-03-21T08:43:27.451Z,100899.66
2023-03-21T08:45:54.216Z,100911.50
2023-03-21T08:48:20.955Z,100920.72
2023-03-21T08:50:47.768Z,100916.00
2023-03-21T08:53:14.368Z,100918.25
2023-03-21T08:55:40.870Z,100908.88
2023-03-21T08:58:08.808Z,100911.13
2023-03-21T09:00:35.296Z,100902.94
2023-03-21T09:03:01.819Z,100904.22
2023-03-21T09:05:28.469Z,100909.13
2023-03-21T09:07:55.036Z,100879.09
2023-03-21T09:10:23.319Z,100895.06
2023-03-21T09:12:51.098Z,100904.66
2023-03-21T09:15:20.090Z,100909.63
2023-03-21T09:17:46.610Z,100910.88
2023-03-21T09:20:13.905Z,100876.78
2023-03-21T09:22:42.659Z,100916.44
2023-03-21T09:25:09.673Z,100916.47
2023-03-21T09:27:36.918Z,100914.56
2023-03-21T09:30:04.008Z,100911.75
2023-03-21T09:32:31.889Z,100918.59
2023-03-21T09:34:58.425Z,100913.19
2023-03-21T09:37:25.011Z,100905.63
2023-03-21T09:39:51.704Z,100919.03
2023-03-21T09:42:32.763Z,100925.03
2023-03-21T09:45:07.623Z,100917.75
2023-03-21T09:47:41.284Z,100921.03
2023-03-21T09:50:16.428Z,100923.63
2023-03-21T09:52:46.676Z,100921.75
2023-03-21T09:55:16.826Z,100891.78
2023-03-21T09:57:45.461Z,100923.50
2023-03-21T10:00:19.712Z,100914.22
2023-03-21T10:02:49.021Z,100906.69
2023-03-21T10:05:19.642Z,100911.34
2023-03-21T10:07:53.082Z,100908.94
2023-03-21T10:10:23.327Z,100895.03
2023-03-21T10:12:52.543Z,100895.88
2023-03-21T10:15:22.301Z,100892.53
2023-03-21T10:17:59.528Z,100892.34
2023-03-21T10:20:30.724Z,100889.38
2023-03-21T10:22:59.968Z,100889.69
2023-03-21T10:25:32.419Z,100891.25
2023-03-21T10:28:00.453Z,100884.03
2023-03-21T10:30:34.972Z,100882.78
2023-03-21T10:33:05.821Z,100866.22
2023-03-21T10:35:34.249Z,100875.81
2023-03-21T10:38:01.286Z,100843.59
2023-03-21T10:40:27.840Z,100872.81
2023-03-21T10:42:55.346Z,100831.53
2023-03-21T10:45:23.091Z,100872.69
2023-03-21T10:47:50.630Z,100868.31
2023-03-21T10:50:20.323Z,100865.97
2023-03-21T10:52:50.186Z,100844.31
2023-03-21T10:55:21.508Z,100858.88
2023-03-21T10:57:51.974Z,100855.25
2023-03-21T11:00:21.162Z,100854.13
2023-03-21T11:02:50.119Z,100846.31
2023-03-21T11:05:24.951Z,100840.81
2023-03-21T11:08:00.359Z,100844.41
2023-03-21T11:10:30.468Z,100846.34
2023-03-21T11:13:01.557Z,100841.66
2023-03-21T11:15:30.723Z,100835.94
2023-03-21T11:17:57.530Z,100845.50
2023-03-21T11:20:29.560Z,100838.28
2023-03-21T11:22:56.342Z,100829.72
2023-03-21T11:25:27.566Z,100816.44
2023-03-21T11:27:55.382Z,100823.31
2023-03-21T11:30:24.331Z,100808.59
2023-03-21T11:32:54.026Z,100813.94
2023-03-21T11:35:23.670Z,100816.19
2023-03-21T11:37:53.667Z,100807.28
2023-03-21T11:40:22.304Z,100813.69
2023-03-21T11:42:50.417Z,100806.59
2023-03-21T11:45:20.384Z,100787.63
2023-03-21T11:47:47.961Z,100805.75
2023-03-21T11:50:17.538Z,100797.25
2023-03-21T11:52:55.973Z,100795.00
2023-03-21T11:55:34.914Z,100791.78
2023-03-21T11:58:19.644Z,100788.03
2023-03-21T12:00:53.856Z,100790.06
2023-03-21T12:03:53.071Z,100780.03
2023-03-21T12:06:28.386Z,100775.53
2023-03-21T12:09:09.057Z,100772.22
2023-03-21T12:11:45.501Z,100772.94
2023-03-21T12:14:23.782Z,100767.34
2023-03-21T12:17:05.135Z,100753.41
2023-03-21T12:19:53.575Z,100757.69
2023-03-21T12:22:31.484Z,100745.75
2023-03-21T12:25:05.796Z,100746.56
2023-03-21T12:27:43.486Z,100754.41
2023-03-21T12:30:21.644Z,100747.19
2023-03-21T12:32:59.777Z,100750.16
2023-03-21T12:35:42.676Z,100749.19
2023-03-21T12:38:16.301Z,100729.69
2023-03-21T12:40:58.261Z,100724.13
2023-03-21T12:43:31.759Z,100715.13
2023-03-21T12:46:01.457Z,100716.13
2023-03-21T12:48:37.508Z,100720.44
2023-03-21T12:51:09.898Z,100717.94
2023-03-21T12:53:59.260Z,100730.69
2023-03-21T12:56:30.519Z,100728.56
2023-03-21T12:59:02.151Z,100712.16
2023-03-21T13:01:29.906Z,100745.56
2023-03-21T13:04:08.679Z,100724.97
2023-03-21T13:06:37.720Z,100731.66
2023-03-21T13:09:13.035Z,100751.94
2023-03-21T13:11:42.258Z,100735.00
2023-03-21T13:14:15.557Z,100744.56
2023-03-21T13:16:47.438Z,100729.09
2023-03-21T13:19:18.141Z,100725.63
2023-03-21T13:21:51.644Z,100730.25
2023-03-21T13:24:24.983Z,100685.56
2023-03-21T13:27:02.212Z,100703.59
2023-03-21T13:29:31.746Z,100706.38
2023-03-21T13:32:15.155Z,100698.59
2023-03-21T13:34:43.585Z,100692.47
2023-03-21T13:37:16.206Z,100693.16
2023-03-21T13:39:45.430Z,100689.28
2023-03-21T13:42:22.366Z,100688.19
2023-03-21T13:44:52.352Z,100683.28
2023-03-21T13:47:31.140Z,100679.41
2023-03-21T13:50:27.099Z,100673.16
2023-03-21T13:53:21.303Z,100655.47
2023-03-21T13:55:59.056Z,100652.38
2023-03-21T13:58:34.752Z,100652.97
2023-03-21T14:01:21.908Z,100674.56
2023-03-21T14:03:48.903Z,100641.69
2023-03-21T14:06:18.357Z,100654.63
2023-03-21T14:08:47.305Z,100646.09
2023-03-21T14:11:18.740Z,100609.78
2023-03-21T14:13:51.350Z,100626.03
2023-03-21T14:16:20.248Z,100631.75
2023-03-21T14:18:54.442Z,100635.81
2023-03-21T14:21:25.201Z,100630.78
2023-03-21T14:23:59.369Z,100622.72
2023-03-21T14:26:29.465Z,100616.72
2023-03-21T14:28:58.578Z,100569.72
2023-03-21T14:31:26.440Z,100601.09
2023-03-21T14:33:56.714Z,100623.25
2023-03-21T14:36:25.950Z,100588.84
2023-03-21T14:39:05.662Z,100605.50
2023-03-21T14:41:33.693Z,100597.13
2023-03-21T14:44:17.259Z,100594.47
2023-03-21T14:46:44.193Z,100586.25
2023-03-21T14:49:12.535Z,100553.91
2023-03-21T14:51:39.840Z,100587.09
2023-03-21T14:54:06.565Z,100578.19
2023-03-21T14:56:35.396Z,100588.31
2023-03-21T14:59:02.092Z,100591.94
2023-03-21T15:01:32.094Z,100582.06
2023-03-21T15:04:00.595Z,100578.75
2023-03-21T15:06:27.492Z,100587.34
2023-03-21T15:08:56.278Z,100592.63
2023-03-21T15:11:30.779Z,100597.34
2023-03-21T15:14:01.297Z,100589.22
2023-03-21T15:16:28.677Z,100578.75
2023-03-21T15:19:01.869Z,100577.16
2023-03-21T15:21:32.163Z,100565.28
2023-03-21T15:24:04.935Z,100577.78
2023-03-21T15:26:32.147Z,100563.09
2023-03-21T15:29:00.038Z,100539.91
2023-03-21T15:31:31.664Z,100568.50
2023-03-21T15:33:59.725Z,100565.69
2023-03-21T15:36:28.200Z,100559.03
2023-03-21T15:38:56.340Z,100553.81
2023-03-21T15:41:28.754Z,100541.88
2023-03-21T15:44:02.124Z,100533.56
2023-03-21T15:46:34.168Z,100546.41
2023-03-21T15:49:18.169Z,100541.78
2023-03-21T15:51:47.185Z,100536.03
2023-03-21T15:54:17.791Z,100533.91
2023-03-21T15:56:44.708Z,100541.16
2023-03-21T15:59:14.001Z,100533.38
2023-03-21T16:01:40.832Z,100532.38
2023-03-21T16:04:11.229Z,100526.31
2023-03-21T16:06:38.994Z,100531.72
2023-03-21T16:09:11.932Z,100517.50
2023-03-21T16:11:41.137Z,100530.28
2023-03-21T16:14:08.607Z,100538.03
2023-03-21T16:16:35.895Z,100511.31
2023-03-21T16:19:03.704Z,100529.00
2023-03-21T16:21:31.842Z,100514.22
2023-03-21T16:23:58.634Z,100527.38
2023-03-21T16:26:27.942Z,100537.94
2023-03-21T16:28:55.092Z,100543.28
2023-03-21T16:31:23.821Z,100516.38
2023-03-21T16:33:50.745Z,100527.03
2023-03-21T16:36:18.899Z,100526.75
2023-03-21T16:38:47.921Z,100523.63
2023-03-21T16:41:15.344Z,100528.09
2023-03-21T16:43:42.905Z,100529.41
2023-03-21T16:46:13.392Z,100524.41
2023-03-21T16:48:40.069Z,100509.13
2023-03-21T16:51:07.027Z,100474.91
2023-03-21T16:53:34.030Z,100508.63
2023-03-21T16:56:02.040Z,100512.44
2023-03-21T16:58:29.666Z,100527.84
2023-03-21T17:00:56.599Z,100528.91
2023-03-21T17:03:23.205Z,100515.19
2023-03-21T17:05:49.852Z,100520.09
2023-03-21T17:08:18.772Z,100544.00
2023-03-21T17:10:46.024Z,100542.38
2023-03-21T17:13:13.970Z,100505.19
2023-03-21T17:15:40.655Z,100525.50
2023-03-21T17:18:07.339Z,100534.81
2023-03-21T17:20:37.062Z,100541.88
2023-03-21T17:23:03.930Z,100549.97
2023-03-21T17:25:30.707Z,100546.00
2023-03-21T17:27:57.204Z,100526.81
2023-03-21T17:30:27.346Z,100535.09
2023-03-21T17:32:54.291Z,100566.50
2023-03-21T17:35:22.391Z,100565.16
2023-03-21T17:37:49.744Z,100551.53
2023-03-21T17:40:20.492Z,100569.94
2023-03-21T17:42:47.522Z,100574.69
2023-03-21T17:45:14.626Z,100583.50
2023-03-21T17:47:43.211Z,100573.59
2023-03-21T17:50:17.151Z,100567.63
2023-03-21T17:52:44.065Z,100582.94
2023-03-21T17:55:11.225Z,100582.53
2023-03-21T17:57:38.066Z,100563.47
2023-03-21T18:00:05.925Z,100572.66
2023-03-21T18:02:38.968Z,100582.44
2023-03-21T18:05:08.839Z,100568.78
2023-03-21T18:08:07.653Z,100575.03
2023-03-21T18:10:26.350Z,100578.22
2023-03-21T18:12:53.417Z,100547.63
2023-03-21T18:15:20.367Z,100574.19
2023-03-21T18:17:47.082Z,100555.69
2023-03-21T18:20:17.153Z,100569.75
2023-03-21T18:22:44.319Z,100553.19
2023-03-21T18:25:11.283Z,100564.31
2023-03-21T18:28:02.142Z,100559.03
2023-03-21T18:30:45.144Z,100552.94
2023-03-21T18:33:11.402Z,100563.06
2023-03-21T18:35:39.255Z,100538.88
2023-03-21T18:38:05.964Z,100565.28
2023-03-21T18:40:32.459Z,100571.41
2023-03-21T18:43:49.964Z,100568.06
2023-03-21T18:45:45.500Z,100562.75
2023-03-21T18:48:12.035Z,100555.56
2023-03-21T18:50:40.668Z,100555.56
2023-03-21T18:53:07.423Z,100559.88
2023-03-21T18:55:45.415Z,100565.81
2023-03-21T18:58:13.322Z,100553.97
2023-03-21T19:00:40.412Z,100574.97
2023-03-21T19:03:19.325Z,100576.66
2023-03-21T19:05:58.950Z,100579.28
2023-03-21T19:08:25.804Z,100576.25
2023-03-21T19:10:53.115Z,100560.81
2023-03-21T19:13:19.850Z,100567.63
2023-03-21T19:15:49.410Z,100564.41
2023-03-21T19:21:05.147Z,100585.41
2023-03-21T19:23:46.850Z,100576.78
2023-03-21T19:26:18.261Z,100568.88
2023-03-21T19:28:44.788Z,100543.13
2023-03-21T19:31:11.470Z,100570.41
2023-03-21T19:33:38.254Z,100536.69
2023-03-21T19:36:17.850Z,100569.66
2023-03-21T19:38:47.647Z,100551.56
2023-03-21T19:41:14.329Z,100568.97
2023-03-21T19:43:52.898Z,100567.56
2023-03-21T19:46:20.847Z,100563.09
2023-03-21T19:48:47.387Z,100563.75
2023-03-21T19:51:27.503Z,100564.16
2023-03-21T19:53:55.650Z,100562.25
2023-03-21T19:56:26.213Z,100544.84
2023-03-21T19:58:53.881Z,100544.31
2023-03-21T20:01:20.675Z,100546.53
2023-03-21T20:03:47.452Z,100548.19
2023-03-21T20:06:15.417Z,100560.97
2023-03-21T20:09:13.746Z,100549.66
2023-03-21T20:11:28.973Z,100418.06
2023-03-21T20:13:55.575Z,100553.56
2023-03-21T20:16:22.285Z,100520.25
2023-03-21T20:18:48.834Z,100559.63
2023-03-21T20:21:18.513Z,100529.50
2023-03-21T20:23:50.604Z,100551.41
2023-03-21T20:26:17.551Z,100541.56
2023-03-21T20:28:56.005Z,100533.94
2023-03-21T20:31:26.435Z,100555.47
2023-03-21T20:33:53.056Z,100561.56
2023-03-21T20:36:38.534Z,100547.97
2023-03-21T20:39:06.841Z,100552.34
2023-03-21T20:41:33.403Z,100561.06
2023-03-21T20:44:39.546Z,100551.75
2023-03-21T20:46:47.151Z,100566.16
2023-03-21T20:49:14.085Z,100554.06
2023-03-21T20:52:44.619Z,100547.94
2023-03-21T20:54:28.971Z,100552.66
2023-03-21T20:56:55.560Z,100556.34
2023-03-21T20:59:27.203Z,100534.63
2023-03-21T21:01:55.163Z,100547.44
2023-03-21T21:04:22.440Z,100533.34
2023-03-21T21:06:50.702Z,100549.34
2023-03-21T21:09:17.294Z,100530.34
2023-03-21T21:14:30.517Z,100537.91
2023-03-21T21:16:57.051Z,100518.81
2023-03-21T21:19:23.784Z,100536.59
2023-03-21T21:21:51.906Z,100538.22
2023-03-21T21:24:18.761Z,100541.22
2023-03-21T21:26:45.301Z,100539.31
2023-03-21T21:29:12.307Z,100527.97
2023-03-21T21:31:38.863Z,100531.94
2023-03-21T21:34:05.507Z,100525.94
2023-03-21T21:36:32.073Z,100502.69
2023-03-21T21:39:00.121Z,100526.66
2023-03-21T21:41:26.651Z,100513.31
2023-03-21T21:43:53.413Z,100529.34
2023-03-21T21:46:20.056Z,100530.84
2023-03-21T21:48:46.729Z,100527.78
2023-03-21T21:51:13.271Z,100531.84
2023-03-21T21:53:40.329Z,100530.06
2023-03-21T21:56:09.511Z,100525.91
2023-03-21T21:58:36.168Z,100510.38
2023-03-21T22:01:03.007Z,100520.28
2023-03-21T22:03:29.704Z,100517.88
2023-03-21T22:06:02.539Z,100520.66
2023-03-21T22:08:29.161Z,100521.25
2023-03-21T22:10:55.680Z,100520.06
2023-03-21T22:13:23.633Z,100500.34
2023-03-21T22:15:50.154Z,100494.72
2023-03-21T22:18:16.760Z,100518.84
2023-03-21T22:20:44.435Z,100501.88
2023-03-21T22:23:11.139Z,100520.19
2023-03-21T22:25:37.953Z,100520.53
2023-03-21T22:28:04.716Z,100525.81
2023-03-21T22:30:32.658Z,100491.41
2023-03-21T22:33:08.874Z,100518.03
2023-03-21T22:35:37.335Z,100521.16
2023-03-21T22:38:03.944Z,100523.53
2023-03-21T22:40:30.633Z,100528.03
2023-03-21T22:42:57.493Z,100520.75
2023-03-21T22:45:24.324Z,100512.03
2023-03-21T22:47:52.269Z,100487.53
2023-03-21T22:50:19.115Z,100508.81
2023-03-21T22:52:45.662Z,100508.16
2023-03-21T22:55:12.257Z,100506.25
2023-03-21T22:57:39.057Z,100511.59
2023-03-21T23:00:07.899Z,100498.34
2023-03-21T23:02:34.711Z,100508.84
2023-03-21T23:05:02.709Z,100512.16
2023-03-21T23:07:29.233Z,100469.09
2023-03-21T23:09:56.627Z,100510.09
2023-03-21T23:12:23.165Z,100509.13
2023-03-21T23:14:49.941Z,100503.16
2023-03-21T23:17:16.478Z,100506.47
2023-03-21T23:19:43.347Z,100505.28
2023-03-21T23:22:11.227Z,100498.94
2023-03-21T23:24:37.834Z,100471.75
2023-03-21T23:27:04.529Z,100504.00
2023-03-21T23:29:31.294Z,100501.84
2023-03-21T23:31:58.013Z,100499.31
2023-03-21T23:34:24.858Z,100498.28
2023-03-21T23:36:51.402Z,100509.50
2023-03-21T23:39:19.388Z,100501.56
2023-03-21T23:41:46.269Z,100458.38
2023-03-21T23:44:12.893Z,100461.22
2023-03-21T23:46:39.794Z,100496.38
2023-03-21T23:49:07.086Z,100464.56
2023-03-21T23:51:33.593Z,100492.38
2023-03-21T23:54:00.220Z,100480.69
2023-03-21T23:56:28.154Z,100452.94
2023-03-21T23:58:56.902Z,100494.06
